sensor_id;sensor_type;location;lat;lon;timestamp;pressure;altitude;pressure_sealevel;temperature;humidity
61814;BME280;57055;-35.296;149.168;2023-03-22T00:02:29;95780.80;;;15.83;64.14
61814;BME280;57055;-35.296;149.168;2023-03-22T00:04:58;95777.58;;;15.85;63.52
61814;BME280;57055;-35.296;149.168;2023-03-22T00:07:27;95771.74;;;15.98;63.00
61814;BME280;57055;-35.296;149.168;2023-03-22T00:09:55;95769.64;;;16.02;62.60
61814;BME280;57055;-35.296;149.168;2023-03-22T00:12:24;95769.58;;;15.71;62.06
61814;BME280;57055;-35.296;149.168;2023-03-22T00:14:52;95774.74;;;16.10;62.46
61814;BME280;57055;-35.296;149.168;2023-03-22T00:17:21;95777.37;;;16.12;62.18
61814;BME280;57055;-35.296;149.168;2023-03-22T00:19:50;95777.49;;;16.41;61.95
61814;BME280;57055;-35.296;149.168;2023-03-22T00:22:18;95781.32;;;16.29;61.65
61814;BME280;57055;-35.296;149.168;2023-03-22T00:24:47;95783.10;;;16.76;61.67
61814;BME280;57055;-35.296;149.168;2023-03-22T00:27:15;95788.69;;;16.57;61.56
61814;BME280;57055;-35.296;149.168;2023-03-22T00:29:44;95790.07;;;16.82;61.53
61814;BME280;57055;-35.296;149.168;2023-03-22T00:32:13;95783.94;;;16.79;60.98
61814;BME280;57055;-35.296;149.168;2023-03-22T00:34:42;95788.14;;;16.56;60.96
61814;BME280;57055;-35.296;149.168;2023-03-22T00:37:11;95781.80;;;16.46;61.19
61814;BME280;57055;-35.296;149.168;2023-03-22T00:39:39;95771.55;;;16.35;61.55
61814;BME280;57055;-35.296;149.168;2023-03-22T00:42:08;95771.01;;;16.42;61.49
61814;BME280;57055;-35.296;149.168;2023-03-22T00:44:37;95768.16;;;16.55;61.32
61814;BME280;57055;-35.296;149.168;2023-03-22T00:47:06;95770.14;;;16.83;61.35
61814;BME280;57055;-35.296;149.168;2023-03-22T00:49:34;95757.87;;;17.02;61.00
61814;BME280;57055;-35.296;149.168;2023-03-22T00:52:03;95762.25;;;16.94;61.23
61814;BME280;57055;-35.296;149.168;2023-03-22T00:54:32;95764.16;;;17.01;60.84
61814;BME280;57055;-35.296;149.168;2023-03-22T00:57:01;95762.92;;;17.16;61.02
61814;BME280;57055;-35.296;149.168;2023-03-22T00:59:30;95764.81;;;17.33;60.61
61814;BME280;57055;-35.296;149.168;2023-03-22T01:01:58;95767.31;;;17.56;60.42
61814;BME280;57055;-35.296;149.168;2023-03-22T01:04:27;95759.76;;;17.72;60.13
61814;BME280;57055;-35.296;149.168;2023-03-22T01:06:56;95762.40;;;17.42;60.46
61814;BME280;57055;-35.296;149.168;2023-03-22T01:09:25;95761.80;;;17.66;60.35
61814;BME280;57055;-35.296;149.168;2023-03-22T01:11:55;95758.27;;;17.66;60.41
61814;BME280;57055;-35.296;149.168;2023-03-22T01:14:25;95754.38;;;17.44;60.85
61814;BME280;57055;-35.296;149.168;2023-03-22T01:16:54;95744.88;;;17.34;60.91
61814;BME280;57055;-35.296;149.168;2023-03-22T01:19:23;95743.28;;;17.14;60.91
61814;BME280;57055;-35.296;149.168;2023-03-22T01:21:53;95734.63;;;17.37;61.22
61814;BME280;57055;-35.296;149.168;2023-03-22T01:24:22;95726.83;;;17.31;61.23
61814;BME280;57055;-35.296;149.168;2023-03-22T01:26:51;95716.83;;;17.24;61.34
61814;BME280;57055;-35.296;149.168;2023-03-22T01:29:20;95713.26;;;17.32;61.47
61814;BME280;57055;-35.296;149.168;2023-03-22T01:31:50;95714.64;;;17.15;61.61
61814;BME280;57055;-35.296;149.168;2023-03-22T01:34:19;95711.65;;;17.29;61.75
61814;BME280;57055;-35.296;149.168;2023-03-22T01:36:48;95710.19;;;17.30;61.70
61814;BME280;57055;-35.296;149.168;2023-03-22T01:39:16;95709.46;;;17.41;61.47
61814;BME280;57055;-35.296;149.168;2023-03-22T01:41:45;95710.97;;;17.50;61.46
61814;BME280;57055;-35.296;149.168;2023-03-22T01:44:16;95706.55;;;17.51;61.44
61814;BME280;57055;-35.296;149.168;2023-03-22T01:46:48;95691.46;;;17.42;61.22
61814;BME280;57055;-35.296;149.168;2023-03-22T01:49:20;95688.58;;;17.52;61.17
61814;BME280;57055;-35.296;149.168;2023-03-22T01:51:52;95686.00;;;17.52;60.92
61814;BME280;57055;-35.296;149.168;2023-03-22T01:54:27;95681.57;;;17.47;61.05
61814;BME280;57055;-35.296;149.168;2023-03-22T01:56:58;95678.73;;;17.51;61.06
61814;BME280;57055;-35.296;149.168;2023-03-22T01:59:28;95676.65;;;17.54;61.04
61814;BME280;57055;-35.296;149.168;2023-03-22T02:01:57;95663.06;;;17.63;61.32
61814;BME280;57055;-35.296;149.168;2023-03-22T02:04:29;95658.84;;;17.25;61.62
61814;BME280;57055;-35.296;149.168;2023-03-22T02:07:01;95656.32;;;17.76;61.25
61814;BME280;57055;-35.296;149.168;2023-03-22T02:09:32;95658.07;;;17.85;61.04
61814;BME280;57055;-35.296;149.168;2023-03-22T02:12:10;95656.75;;;17.52;61.01
61814;BME280;57055;-35.296;149.168;2023-03-22T02:15:05;95655.49;;;17.66;60.80
61814;BME280;57055;-35.296;149.168;2023-03-22T02:17:46;95648.92;;;17.48;61.34
61814;BME280;57055;-35.296;149.168;2023-03-22T02:23:38;95651.48;;;17.96;61.46
61814;BME280;57055;-35.296;149.168;2023-03-22T02:26:39;95653.35;;;17.88;60.96
61814;BME280;57055;-35.296;149.168;2023-03-22T02:29:14;95649.67;;;17.61;61.19
61814;BME280;57055;-35.296;149.168;2023-03-22T02:33:06;95648.74;;;17.62;61.12
61814;BME280;57055;-35.296;149.168;2023-03-22T02:36:02;95634.40;;;17.58;61.34
61814;BME280;57055;-35.296;149.168;2023-03-22T02:39:44;95628.14;;;17.71;61.24
61814;BME280;57055;-35.296;149.168;2023-03-22T02:42:26;95630.41;;;17.86;61.35
61814;BME280;57055;-35.296;149.168;2023-03-22T02:45:04;95616.41;;;17.91;60.96
61814;BME280;57055;-35.296;149.168;2023-03-22T02:47:40;95612.65;;;17.90;60.74
61814;BME280;57055;-35.296;149.168;2023-03-22T02:50:14;95612.94;;;17.72;60.67
61814;BME280;57055;-35.296;149.168;2023-03-22T02:52:51;95607.48;;;17.72;60.92
61814;BME280;57055;-35.296;149.168;2023-03-22T02:55:25;95604.11;;;17.71;60.80
61814;BME280;57055;-35.296;149.168;2023-03-22T02:58:01;95601.97;;;18.17;60.76
61814;BME280;57055;-35.296;149.168;2023-03-22T03:00:31;95597.23;;;17.87;60.61
61814;BME280;57055;-35.296;149.168;2023-03-22T03:03:09;95593.30;;;17.75;60.64
61814;BME280;57055;-35.296;149.168;2023-03-22T03:05:42;95590.56;;;17.75;60.81
61814;BME280;57055;-35.296;149.168;2023-03-22T03:08:14;95588.65;;;18.04;60.65
61814;BME280;57055;-35.296;149.168;2023-03-22T03:10:45;95590.42;;;18.11;60.03
61814;BME280;57055;-35.296;149.168;2023-03-22T03:13:16;95587.25;;;18.29;59.76
61814;BME280;57055;-35.296;149.168;2023-03-22T03:15:49;95582.50;;;18.62;59.39
61814;BME280;57055;-35.296;149.168;2023-03-22T03:18:30;95583.24;;;18.71;59.21
61814;BME280;57055;-35.296;149.168;2023-03-22T03:21:07;95580.57;;;18.80;58.95
61814;BME280;57055;-35.296;149.168;2023-03-22T03:23:50;95572.68;;;18.93;58.39
61814;BME280;57055;-35.296;149.168;2023-03-22T03:26:25;95569.28;;;18.81;58.41
61814;BME280;57055;-35.296;149.168;2023-03-22T03:29:00;95566.75;;;18.68;58.35
61814;BME280;57055;-35.296;149.168;2023-03-22T03:31:35;95565.29;;;18.81;58.27
61814;BME280;57055;-35.296;149.168;2023-03-22T03:34:14;95562.25;;;18.78;57.81
61814;BME280;57055;-35.296;149.168;2023-03-22T03:36:52;95556.36;;;19.14;57.43
61814;BME280;57055;-35.296;149.168;2023-03-22T03:39:24;95548.52;;;19.64;56.63
61814;BME280;57055;-35.296;149.168;2023-03-22T03:41:55;95550.29;;;19.27;55.93
61814;BME280;57055;-35.296;149.168;2023-03-22T03:44:24;95541.65;;;19.68;55.32
61814;BME280;57055;-35.296;149.168;2023-03-22T03:46:55;95542.51;;;19.50;55.49
61814;BME280;57055;-35.296;149.168;2023-03-22T03:49:25;95537.21;;;19.66;55.42
61814;BME280;57055;-35.296;149.168;2023-03-22T03:51:55;95537.65;;;19.76;55.12
61814;BME280;57055;-35.296;149.168;2023-03-22T03:54:24;95535.79;;;19.85;54.88
61814;BME280;57055;-35.296;149.168;2023-03-22T03:56:54;95535.87;;;19.75;54.71
61814;BME280;57055;-35.296;149.168;2023-03-22T03:59:23;95536.05;;;19.53;54.81
61814;BME280;57055;-35.296;149.168;2023-03-22T04:01:51;95534.98;;;19.45;55.14
61814;BME280;57055;-35.296;149.168;2023-03-22T04:04:22;95532.59;;;19.35;55.37
61814;BME280;57055;-35.296;149.168;2023-03-22T04:06:53;95529.09;;;19.29;55.57
61814;BME280;57055;-35.296;149.168;2023-03-22T04:09:22;95523.07;;;19.14;55.74
61814;BME280;57055;-35.296;149.168;2023-03-22T04:11:51;95523.43;;;19.15;55.85
61814;BME280;57055;-35.296;149.168;2023-03-22T04:14:20;95526.17;;;19.17;55.43
61814;BME280;57055;-35.296;149.168;2023-03-22T04:16:49;95524.80;;;19.47;55.96
61814;BME280;57055;-35.296;149.168;2023-03-22T04:19:18;95524.11;;;19.15;55.96
61814;BME280;57055;-35.296;149.168;2023-03-22T04:21:48;95524.46;;;19.10;56.25
61814;BME280;57055;-35.296;149.168;2023-03-22T04:24:17;95526.28;;;18.76;56.37
61814;BME280;57055;-35.296;149.168;2023-03-22T04:26:45;95526.54;;;19.07;56.63
61814;BME280;57055;-35.296;149.168;2023-03-22T04:29:15;95520.84;;;18.81;56.72
61814;BME280;57055;-35.296;149.168;2023-03-22T04:31:43;95518.08;;;19.13;56.58
61814;BME280;57055;-35.296;149.168;2023-03-22T04:34:12;95510.79;;;19.19;56.18
61814;BME280;57055;-35.296;149.168;2023-03-22T04:36:40;95504.46;;;18.93;56.38
61814;BME280;57055;-35.296;149.168;2023-03-22T04:39:11;95505.96;;;19.02;56.14
61814;BME280;57055;-35.296;149.168;2023-03-22T04:41:40;95507.07;;;19.10;56.00
61814;BME280;57055;-35.296;149.168;2023-03-22T04:44:08;95506.46;;;19.34;55.86
61814;BME280;57055;-35.296;149.168;2023-03-22T04:46:38;95510.85;;;19.34;55.94
61814;BME280;57055;-35.296;149.168;2023-03-22T04:49:07;95508.19;;;18.98;56.09
61814;BME280;57055;-35.296;149.168;2023-03-22T04:51:37;95507.06;;;19.44;56.23
61814;BME280;57055;-35.296;149.168;2023-03-22T04:54:05;95503.50;;;18.81;56.81
61814;BME280;57055;-35.296;149.168;2023-03-22T04:56:34;95510.01;;;19.35;56.71
61814;BME280;57055;-35.296;149.168;2023-03-22T04:59:03;95511.56;;;19.11;56.12
61814;BME280;57055;-35.296;149.168;2023-03-22T05:01:32;95507.16;;;19.12;56.24
61814;BME280;57055;-35.296;149.168;2023-03-22T05:04:01;95504.92;;;19.06;56.35
61814;BME280;57055;-35.296;149.168;2023-03-22T05:06:30;95497.45;;;19.10;56.25
61814;BME280;57055;-35.296;149.168;2023-03-22T05:09:00;95497.67;;;19.08;56.42
61814;BME280;57055;-35.296;149.168;2023-03-22T05:11:28;95500.26;;;19.10;56.50
61814;BME280;57055;-35.296;149.168;2023-03-22T05:13:57;95496.11;;;19.12;56.37
61814;BME280;57055;-35.296;149.168;2023-03-22T05:16:26;95491.06;;;18.92;56.14
61814;BME280;57055;-35.296;149.168;2023-03-22T05:18:55;95493.95;;;19.19;56.19
61814;BME280;57055;-35.296;149.168;2023-03-22T05:21:24;95491.88;;;18.98;56.77
61814;BME280;57055;-35.296;149.168;2023-03-22T05:23:54;95485.58;;;18.96;57.01
61814;BME280;57055;-35.296;149.168;2023-03-22T05:26:24;95487.65;;;18.81;56.68
61814;BME280;57055;-35.296;149.168;2023-03-22T05:28:54;95490.82;;;19.38;56.48
61814;BME280;57055;-35.296;149.168;2023-03-22T05:31:24;95484.62;;;19.05;56.81
61814;BME280;57055;-35.296;149.168;2023-03-22T05:33:53;95482.66;;;19.03;56.81
61814;BME280;57055;-35.296;149.168;2023-03-22T05:36:23;95481.24;;;18.91;56.94
61814;BME280;57055;-35.296;149.168;2023-03-22T05:38:51;95478.31;;;19.16;57.10
61814;BME280;57055;-35.296;149.168;2023-03-22T05:41:21;95483.75;;;19.19;57.07
61814;BME280;57055;-35.296;149.168;2023-03-22T05:43:49;95481.36;;;18.78;57.04
61814;BME280;57055;-35.296;149.168;2023-03-22T05:46:18;95478.34;;;18.71;56.89
61814;BME280;57055;-35.296;149.168;2023-03-22T05:48:46;95475.34;;;19.10;57.27
61814;BME280;57055;-35.296;149.168;2023-03-22T05:51:15;95476.72;;;18.86;57.22
61814;BME280;57055;-35.296;149.168;2023-03-22T05:53:45;95477.66;;;19.07;57.40
61814;BME280;57055;-35.296;149.168;2023-03-22T05:56:14;95474.53;;;18.82;57.69
61814;BME280;57055;-35.296;149.168;2023-03-22T05:58:43;95473.54;;;18.83;57.97
61814;BME280;57055;-35.296;149.168;2023-03-22T06:01:13;95473.25;;;18.78;58.01
61814;BME280;57055;-35.296;149.168;2023-03-22T06:03:42;95473.28;;;18.70;58.26
61814;BME280;57055;-35.296;149.168;2023-03-22T06:06:11;95473.90;;;18.74;57.77
61814;BME280;57055;-35.296;149.168;2023-03-22T06:08:41;95474.34;;;18.76;57.34
61814;BME280;57055;-35.296;149.168;2023-03-22T06:11:11;95475.43;;;18.93;57.26
61814;BME280;57055;-35.296;149.168;2023-03-22T06:13:40;95472.34;;;18.96;57.08
61814;BME280;57055;-35.296;149.168;2023-03-22T06:16:10;95470.74;;;18.66;57.43
61814;BME280;57055;-35.296;149.168;2023-03-22T06:18:38;95472.33;;;18.81;57.78
61814;BME280;57055;-35.296;149.168;2023-03-22T06:21:07;95474.78;;;18.86;57.71
61814;BME280;57055;-35.296;149.168;2023-03-22T06:23:36;95475.21;;;18.82;57.58
61814;BME280;57055;-35.296;149.168;2023-03-22T06:26:05;95474.15;;;18.26;57.69
61814;BME280;57055;-35.296;149.168;2023-03-22T06:28:34;95470.56;;;18.53;57.92
61814;BME280;57055;-35.296;149.168;2023-03-22T06:31:06;95473.83;;;18.75;57.81
61814;BME280;57055;-35.296;149.168;2023-03-22T06:33:36;95476.44;;;18.63;57.63
61814;BME280;57055;-35.296;149.168;2023-03-22T06:36:06;95475.29;;;18.58;57.71
61814;BME280;57055;-35.296;149.168;2023-03-22T06:38:34;95476.46;;;18.86;57.77
61814;BME280;57055;-35.296;149.168;2023-03-22T06:41:03;95471.62;;;18.74;57.44
61814;BME280;57055;-35.296;149.168;2023-03-22T06:43:32;95475.07;;;18.88;57.56
61814;BME280;57055;-35.296;149.168;2023-03-22T06:46:02;95473.06;;;18.91;57.52
61814;BME280;57055;-35.296;149.168;2023-03-22T06:48:31;95475.95;;;18.82;57.64
61814;BME280;57055;-35.296;149.168;2023-03-22T06:50:59;95475.28;;;18.58;57.54
61814;BME280;57055;-35.296;149.168;2023-03-22T06:53:28;95476.48;;;18.65;57.40
61814;BME280;57055;-35.296;149.168;2023-03-22T06:55:57;95478.23;;;18.60;57.66
61814;BME280;57055;-35.296;149.168;2023-03-22T06:58:25;95477.68;;;18.54;57.73
61814;BME280;57055;-35.296;149.168;2023-03-22T07:00:55;95471.76;;;18.57;57.65
61814;BME280;57055;-35.296;149.168;2023-03-22T07:03:25;95468.10;;;18.57;57.74
61814;BME280;57055;-35.296;149.168;2023-03-22T07:05:59;95471.06;;;18.51;57.78
61814;BME280;57055;-35.296;149.168;2023-03-22T07:08:28;95476.87;;;18.56;57.79
61814;BME280;57055;-35.296;149.168;2023-03-22T07:10:57;95483.17;;;18.63;57.68
61814;BME280;57055;-35.296;149.168;2023-03-22T07:13:27;95490.92;;;18.62;57.72
61814;BME280;57055;-35.296;149.168;2023-03-22T07:15:57;95484.14;;;18.57;57.73
61814;BME280;57055;-35.296;149.168;2023-03-22T07:18:27;95475.09;;;18.41;58.18
61814;BME280;57055;-35.296;149.168;2023-03-22T07:20:57;95469.97;;;18.40;58.32
61814;BME280;57055;-35.296;149.168;2023-03-22T07:23:26;95467.08;;;18.37;58.43
61814;BME280;57055;-35.296;149.168;2023-03-22T07:25:55;95467.48;;;18.40;58.55
61814;BME280;57055;-35.296;149.168;2023-03-22T07:28:24;95460.69;;;18.34;58.86
61814;BME280;57055;-35.296;149.168;2023-03-22T07:31:00;95457.58;;;18.46;58.47
61814;BME280;57055;-35.296;149.168;2023-03-22T07:33:29;95456.92;;;18.32;58.36
61814;BME280;57055;-35.296;149.168;2023-03-22T07:35:58;95452.68;;;18.74;58.14
61814;BME280;57055;-35.296;149.168;2023-03-22T07:38:28;95458.86;;;18.53;58.15
61814;BME280;57055;-35.296;149.168;2023-03-22T07:40:56;95461.15;;;18.75;58.21
61814;BME280;57055;-35.296;149.168;2023-03-22T07:43:25;95464.01;;;18.79;58.35
61814;BME280;57055;-35.296;149.168;2023-03-22T07:45:55;95464.59;;;18.56;58.73
61814;BME280;57055;-35.296;149.168;2023-03-22T07:48:24;95464.24;;;18.78;58.46
61814;BME280;57055;-35.296;149.168;2023-03-22T07:50:55;95464.50;;;18.63;58.95
61814;BME280;57055;-35.296;149.168;2023-03-22T07:53:25;95461.01;;;18.49;59.23
61814;BME280;57055;-35.296;149.168;2023-03-22T07:55:53;95463.26;;;18.38;59.64
61814;BME280;57055;-35.296;149.168;2023-03-22T07:58:22;95465.70;;;18.33;59.74
61814;BME280;57055;-35.296;149.168;2023-03-22T08:00:50;95465.34;;;18.27;59.78
61814;BME280;57055;-35.296;149.168;2023-03-22T08:03:19;95466.51;;;18.06;59.99
61814;BME280;57055;-35.296;149.168;2023-03-22T08:05:47;95468.09;;;18.17;59.88
61814;BME280;57055;-35.296;149.168;2023-03-22T08:08:16;95465.39;;;18.12;60.29
61814;BME280;57055;-35.296;149.168;2023-03-22T08:10:48;95468.47;;;18.04;60.54
61814;BME280;57055;-35.296;149.168;2023-03-22T08:13:17;95469.37;;;18.06;60.31
61814;BME280;57055;-35.296;149.168;2023-03-22T08:15:47;95476.10;;;17.92;60.59
61814;BME280;57055;-35.296;149.168;2023-03-22T08:18:15;95479.79;;;17.83;60.71
61814;BME280;57055;-35.296;149.168;2023-03-22T08:20:44;95482.19;;;18.01;60.86
61814;BME280;57055;-35.296;149.168;2023-03-22T08:23:13;95479.94;;;17.97;60.88
61814;BME280;57055;-35.296;149.168;2023-03-22T08:25:42;95479.93;;;17.66;60.96
61814;BME280;57055;-35.296;149.168;2023-03-22T08:28:11;95481.97;;;17.87;61.32
61814;BME280;57055;-35.296;149.168;2023-03-22T08:30:40;95476.12;;;17.78;61.49
61814;BME280;57055;-35.296;149.168;2023-03-22T08:33:08;95474.38;;;17.49;61.56
61814;BME280;57055;-35.296;149.168;2023-03-22T08:35:38;95470.75;;;17.69;61.82
61814;BME280;57055;-35.296;149.168;2023-03-22T08:38:08;95464.92;;;17.36;61.98
61814;BME280;57055;-35.296;149.168;2023-03-22T08:40:37;95456.03;;;17.79;61.98
61814;BME280;57055;-35.296;149.168;2023-03-22T08:43:05;95457.07;;;17.80;62.01
61814;BME280;57055;-35.296;149.168;2023-03-22T08:45:34;95458.40;;;17.55;62.19
61814;BME280;57055;-35.296;149.168;2023-03-22T08:48:03;95459.76;;;17.22;62.23
61814;BME280;57055;-35.296;149.168;2023-03-22T08:50:32;95464.88;;;17.64;62.51
61814;BME280;57055;-35.296;149.168;2023-03-22T08:53:01;95464.83;;;17.37;62.59
61814;BME280;57055;-35.296;149.168;2023-03-22T08:55:30;95467.29;;;17.33;62.93
61814;BME280;57055;-35.296;149.168;2023-03-22T08:58:00;95471.53;;;17.28;63.19
61814;BME280;57055;-35.296;149.168;2023-03-22T09:00:29;95468.97;;;17.49;63.27
61814;BME280;57055;-35.296;149.168;2023-03-22T09:02:58;95466.56;;;17.22;63.47
61814;BME280;57055;-35.296;149.168;2023-03-22T09:05:26;95472.39;;;17.15;63.62
61814;BME280;57055;-35.296;149.168;2023-03-22T09:07:55;95480.59;;;17.32;63.84
61814;BME280;57055;-35.296;149.168;2023-03-22T09:10:24;95485.34;;;17.31;63.81
61814;BME280;57055;-35.296;149.168;2023-03-22T09:12:52;95486.17;;;17.02;63.93
61814;BME280;57055;-35.296;149.168;2023-03-22T09:15:21;95484.68;;;16.97;64.21
61814;BME280;57055;-35.296;149.168;2023-03-22T09:17:50;95479.09;;;17.21;64.27
61814;BME280;57055;-35.296;149.168;2023-03-22T09:20:19;95479.77;;;17.44;64.36
61814;BME280;57055;-35.296;149.168;2023-03-22T09:22:48;95485.70;;;17.23;64.35
61814;BME280;57055;-35.296;149.168;2023-03-22T09:25:17;95491.58;;;17.18;64.52
61814;BME280;57055;-35.296;149.168;2023-03-22T09:27:46;95496.73;;;17.34;64.80
61814;BME280;57055;-35.296;149.168;2023-03-22T09:30:15;95499.32;;;16.82;64.91
61814;BME280;57055;-35.296;149.168;2023-03-22T09:32:43;95504.74;;;17.00;64.95
61814;BME280;57055;-35.296;149.168;2023-03-22T09:35:12;95507.90;;;16.95;65.02
61814;BME280;57055;-35.296;149.168;2023-03-22T09:37:40;95515.29;;;16.90;64.90
61814;BME280;57055;-35.296;149.168;2023-03-22T09:40:11;95520.82;;;16.89;64.91
61814;BME280;57055;-35.296;149.168;2023-03-22T09:42:43;95523.79;;;16.85;64.89
61814;BME280;57055;-35.296;149.168;2023-03-22T09:45:17;95527.35;;;17.09;64.85
61814;BME280;57055;-35.296;149.168;2023-03-22T09:47:50;95530.03;;;16.90;64.71
61814;BME280;57055;-35.296;149.168;2023-03-22T09:50:25;95525.53;;;16.85;64.79
61814;BME280;57055;-35.296;149.168;2023-03-22T09:52:55;95522.57;;;16.90;64.60
61814;BME280;57055;-35.296;149.168;2023-03-22T09:55:32;95511.65;;;16.88;64.59
61814;BME280;57055;-35.296;149.168;2023-03-22T09:58:10;95511.06;;;16.86;64.53
61814;BME280;57055;-35.296;149.168;2023-03-22T10:00:44;95513.76;;;16.83;64.51
61814;BME280;57055;-35.296;149.168;2023-03-22T10:03:23;95518.08;;;16.80;64.53
61814;BME280;57055;-35.296;149.168;2023-03-22T10:06:01;95522.33;;;16.78;64.39
61814;BME280;57055;-35.296;149.168;2023-03-22T10:08:39;95522.01;;;16.95;64.59
61814;BME280;57055;-35.296;149.168;2023-03-22T10:11:20;95522.50;;;16.91;64.71
61814;BME280;57055;-35.296;149.168;2023-03-22T10:13:59;95523.26;;;16.77;64.84
61814;BME280;57055;-35.296;149.168;2023-03-22T10:16:32;95521.82;;;16.64;64.98
61814;BME280;57055;-35.296;149.168;2023-03-22T10:19:06;95522.02;;;16.57;65.06
61814;BME280;57055;-35.296;149.168;2023-03-22T10:21:41;95520.79;;;16.47;65.09
61814;BME280;57055;-35.296;149.168;2023-03-22T10:24:15;95521.54;;;16.30;64.90
61814;BME280;57055;-35.296;149.168;2023-03-22T10:26:47;95521.65;;;16.31;64.80
61814;BME280;57055;-35.296;149.168;2023-03-22T10:29:22;95517.97;;;16.29;64.61
61814;BME280;57055;-35.296;149.168;2023-03-22T10:31:55;95514.76;;;16.58;64.41
61814;BME280;57055;-35.296;149.168;2023-03-22T10:34:33;95516.03;;;16.55;64.37
61814;BME280;57055;-35.296;149.168;2023-03-22T10:37:04;95520.11;;;16.27;64.51
61814;BME280;57055;-35.296;149.168;2023-03-22T10:39:37;95526.87;;;16.49;64.32
61814;BME280;57055;-35.296;149.168;2023-03-22T10:42:10;95533.09;;;16.42;64.32
61814;BME280;57055;-35.296;149.168;2023-03-22T10:44:47;95524.82;;;16.67;64.23
61814;BME280;57055;-35.296;149.168;2023-03-22T10:47:19;95520.76;;;16.31;64.53
61814;BME280;57055;-35.296;149.168;2023-03-22T10:49:54;95515.01;;;16.51;64.97
61814;BME280;57055;-35.296;149.168;2023-03-22T10:52:35;95513.65;;;16.41;65.12
61814;BME280;57055;-35.296;149.168;2023-03-22T10:55:10;95508.06;;;16.00;65.42
61814;BME280;57055;-35.296;149.168;2023-03-22T10:57:40;95500.64;;;15.91;65.36
61814;BME280;57055;-35.296;149.168;2023-03-22T11:00:11;95499.28;;;16.09;65.41
61814;BME280;57055;-35.296;149.168;2023-03-22T11:02:46;95498.90;;;16.12;65.36
61814;BME280;57055;-35.296;149.168;2023-03-22T11:05:22;95497.23;;;15.84;65.38
61814;BME280;57055;-35.296;149.168;2023-03-22T11:07:52;95503.30;;;16.17;65.38
61814;BME280;57055;-35.296;149.168;2023-03-22T11:10:24;95510.73;;;16.17;65.26
61814;BME280;57055;-35.296;149.168;2023-03-22T11:12:58;95512.38;;;16.17;65.08
61814;BME280;57055;-35.296;149.168;2023-03-22T11:15:40;95516.74;;;15.91;64.96
61814;BME280;57055;-35.296;149.168;2023-03-22T11:18:13;95521.41;;;16.20;64.96
61814;BME280;57055;-35.296;149.168;2023-03-22T11:20:54;95519.57;;;15.89;65.18
61814;BME280;57055;-35.296;149.168;2023-03-22T11:23:26;95526.90;;;15.79;65.38
61814;BME280;57055;-35.296;149.168;2023-03-22T11:25:58;95525.73;;;16.00;65.59
61814;BME280;57055;-35.296;149.168;2023-03-22T11:28:32;95524.08;;;15.99;65.59
61814;BME280;57055;-35.296;149.168;2023-03-22T11:31:05;95513.94;;;15.80;65.40
61814;BME280;57055;-35.296;149.168;2023-03-22T11:33:36;95515.95;;;16.06;65.53
61814;BME280;57055;-35.296;149.168;2023-03-22T11:36:16;95518.75;;;16.07;65.44
61814;BME280;57055;-35.296;149.168;2023-03-22T11:38:45;95516.84;;;15.81;65.21
61814;BME280;57055;-35.296;149.168;2023-03-22T11:41:21;95516.39;;;15.85;64.99
61814;BME280;57055;-35.296;149.168;2023-03-22T11:43:54;95514.82;;;16.10;65.00
61814;BME280;57055;-35.296;149.168;2023-03-22T11:46:24;95515.08;;;16.03;65.13
61814;BME280;57055;-35.296;149.168;2023-03-22T11:48:57;95509.33;;;15.99;65.36
61814;BME280;57055;-35.296;149.168;2023-03-22T11:51:29;95507.15;;;15.85;65.61
61814;BME280;57055;-35.296;149.168;2023-03-22T11:54:05;95504.56;;;15.71;65.54
61814;BME280;57055;-35.296;149.168;2023-03-22T11:56:38;95501.64;;;15.69;65.26
61814;BME280;57055;-35.296;149.168;2023-03-22T11:59:12;95498.04;;;15.60;65.42
61814;BME280;57055;-35.296;149.168;2023-03-22T12:01:45;95492.56;;;15.45;65.88
61814;BME280;57055;-35.296;149.168;2023-03-22T12:04:18;95488.75;;;15.34;66.14
61814;BME280;57055;-35.296;149.168;2023-03-22T12:06:49;95491.47;;;15.43;65.84
61814;BME280;57055;-35.296;149.168;2023-03-22T12:09:27;95491.79;;;15.54;65.43
61814;BME280;57055;-35.296;149.168;2023-03-22T12:12:01;95492.62;;;15.69;65.62
61814;BME280;57055;-35.296;149.168;2023-03-22T12:14:38;95492.38;;;15.38;65.54
61814;BME280;57055;-35.296;149.168;2023-03-22T12:17:14;95488.80;;;15.41;65.39
61814;BME280;57055;-35.296;149.168;2023-03-22T12:19:53;95485.59;;;15.50;65.21
61814;BME280;57055;-35.296;149.168;2023-03-22T12:22:28;95487.50;;;15.42;65.32
61814;BME280;57055;-35.296;149.168;2023-03-22T12:24:59;95487.84;;;15.40;65.59
61814;BME280;57055;-35.296;149.168;2023-03-22T12:27:33;95490.06;;;15.34;65.73
61814;BME280;57055;-35.296;149.168;2023-03-22T12:30:05;95492.86;;;15.51;66.01
61814;BME280;57055;-35.296;149.168;2023-03-22T12:32:41;95487.01;;;15.30;65.57
61814;BME280;57055;-35.296;149.168;2023-03-22T12:35:14;95481.70;;;15.30;65.19
61814;BME280;57055;-35.296;149.168;2023-03-22T12:37:49;95481.47;;;15.32;65.07
61814;BME280;57055;-35.296;149.168;2023-03-22T12:40:23;95480.86;;;15.26;65.79
61814;BME280;57055;-35.296;149.168;2023-03-22T12:43:03;95479.94;;;14.88;65.77
61814;BME280;57055;-35.296;149.168;2023-03-22T12:45:38;95472.85;;;15.00;66.06
61814;BME280;57055;-35.296;149.168;2023-03-22T12:48:13;95468.58;;;15.02;66.11
61814;BME280;57055;-35.296;149.168;2023-03-22T12:50:46;95471.61;;;15.54;65.92
61814;BME280;57055;-35.296;149.168;2023-03-22T12:53:17;95472.38;;;15.10;65.59
61814;BME280;57055;-35.296;149.168;2023-03-22T12:55:48;95476.22;;;15.60;65.35
61814;BME280;57055;-35.296;149.168;2023-03-22T12:58:21;95478.30;;;15.36;65.46